createdAt,value
2018-11-26T00:00:12.025Z,3.72222222222
2018-11-26T00:00:24.571Z,3.72222222222
2018-11-26T00:00:37.018Z,3.72222222222
2018-11-26T00:00:49.386Z,3.72222222222
2018-11-26T00:01:01.751Z,3.72222222222
2018-11-26T00:01:14.137Z,3.72222222222
2018-11-26T00:01:26.531Z,3.72222222222
2018-11-26T00:01:38.895Z,3.72222222222
2018-11-26T00:01:51.285Z,3.72222222222
2018-11-26T00:02:03.666Z,3.72222222222
2018-11-26T00:02:16.040Z,3.66666666667
2018-11-26T00:02:28.411Z,3.72222222222
2018-11-26T00:02:40.780Z,3.66666666667
2018-11-26T00:02:53.166Z,3.66666666667
2018-11-26T00:03:05.525Z,3.72222222222
2018-11-26T00:03:17.920Z,3.66666666667
2018-11-26T00:03:30.288Z,3.66666666667
2018-11-26T00:03:42.672Z,3.66666666667
2018-11-26T00:03:55.049Z,3.66666666667
2018-11-26T00:04:07.425Z,3.66666666667
2018-11-26T00:04:19.934Z,3.66666666667
2018-11-26T00:04:32.300Z,3.66666666667
2018-11-26T00:04:44.816Z,3.66666666667
2018-11-26T00:04:57.182Z,3.61111111111
2018-11-26T00:05:09.822Z,3.66666666667
2018-11-26T00:05:22.197Z,3.66666666667
2018-11-26T00:05:34.560Z,3.61111111111
2018-11-26T00:05:47.060Z,3.66666666667
2018-11-26T00:05:59.428Z,3.61111111111
2018-11-26T00:06:11.796Z,3.61111111111
2018-11-26T00:06:24.183Z,3.61111111111
2018-11-26T00:06:36.540Z,3.61111111111
2018-11-26T00:06:48.918Z,3.61111111111
2018-11-26T00:07:01.300Z,3.61111111111
2018-11-26T00:07:13.662Z,3.61111111111
2018-11-26T00:07:26.030Z,3.61111111111
2018-11-26T00:07:38.401Z,3.61111111111
2018-11-26T00:07:50.791Z,3.61111111111
2018-11-26T00:08:03.161Z,3.61111111111
2018-11-26T00:08:15.528Z,3.55555555556
2018-11-26T00:08:27.899Z,3.61111111111
2018-11-26T00:08:40.271Z,3.55555555556
2018-11-26T00:08:52.641Z,3.55555555556
2018-11-26T00:09:05.001Z,3.55555555556
2018-11-26T00:09:17.362Z,3.61111111111
2018-11-26T00:09:29.745Z,3.55555555556
2018-11-26T00:09:42.126Z,3.55555555556
2018-11-26T00:09:54.502Z,3.55555555556
2018-11-26T00:10:06.883Z,3.55555555556
2018-11-26T00:10:19.738Z,3.55555555556
2018-11-26T00:10:32.121Z,3.55555555556
2018-11-26T00:10:44.495Z,3.5
2018-11-26T00:10:56.880Z,3.5
2018-11-26T00:11:09.289Z,3.55555555556
2018-11-26T00:11:21.668Z,3.55555555556
2018-11-26T00:11:34.018Z,3.5
2018-11-26T00:11:46.410Z,3.5
2018-11-26T00:11:58.793Z,3.5
2018-11-26T00:12:11.166Z,3.5
2018-11-26T00:12:23.540Z,3.5
2018-11-26T00:12:35.910Z,3.5
2018-11-26T00:12:48.312Z,3.5
2018-11-26T00:13:00.690Z,3.5
2018-11-26T00:13:13.103Z,3.5
2018-11-26T00:13:25.482Z,3.44444444444
2018-11-26T00:13:37.864Z,3.5
2018-11-26T00:13:50.395Z,3.44444444444
2018-11-26T00:14:02.776Z,3.44444444444
2018-11-26T00:14:15.206Z,3.44444444444
2018-11-26T00:14:27.585Z,3.44444444444
2018-11-26T00:14:39.958Z,3.44444444444
2018-11-26T00:14:52.314Z,3.44444444444
2018-11-26T00:15:04.689Z,3.44444444444
2018-11-26T00:15:17.061Z,3.44444444444
2018-11-26T00:15:29.459Z,3.44444444444
2018-11-26T00:15:41.825Z,3.44444444444
2018-11-26T00:15:54.205Z,3.44444444444
2018-11-26T00:16:06.566Z,3.44444444444
2018-11-26T00:16:18.953Z,3.44444444444
2018-11-26T00:16:31.372Z,3.44444444444
2018-11-26T00:16:43.878Z,3.44444444444
2018-11-26T00:16:56.263Z,3.44444444444
2018-11-26T00:17:08.630Z,3.44444444444
2018-11-26T00:17:20.995Z,3.44444444444
2018-11-26T00:17:33.365Z,3.44444444444
2018-11-26T00:17:45.751Z,3.44444444444
2018-11-26T00:17:58.114Z,3.44444444444
2018-11-26T00:18:10.485Z,3.44444444444
2018-11-26T00:18:22.993Z,3.44444444444
2018-11-26T00:18:35.371Z,3.38888888889
2018-11-26T00:18:48.212Z,3.38888888889
2018-11-26T00:19:00.584Z,3.38888888889
2018-11-26T00:19:12.964Z,3.38888888889
2018-11-26T00:19:25.336Z,3.38888888889
2018-11-26T00:19:37.756Z,3.38888888889
2018-11-26T00:19:50.118Z,3.33333333333
2018-11-26T00:20:02.510Z,3.38888888889
2018-11-26T00:20:14.876Z,3.38888888889
2018-11-26T00:20:27.423Z,3.33333333333
2018-11-26T00:20:39.809Z,3.33333333333
2018-11-26T00:20:52.169Z,3.38888888889
2018-11-26T00:21:04.544Z,3.33333333333
2018-11-26T00:21:16.905Z,3.33333333333
2018-11-26T00:21:29.319Z,3.33333333333
2018-11-26T00:21:41.688Z,3.33333333333
2018-11-26T00:21:54.051Z,3.33333333333
2018-11-26T00:22:06.469Z,3.33333333333
2018-11-26T00:22:18.862Z,3.27777777778
2018-11-26T00:22:31.226Z,3.33333333333
2018-11-26T00:22:43.643Z,3.33333333333
2018-11-26T00:22:56.013Z,3.27777777778
2018-11-26T00:23:08.715Z,3.33333333333
2018-11-26T00:23:21.108Z,3.27777777778
2018-11-26T00:23:33.506Z,3.27777777778
2018-11-26T00:23:45.884Z,3.27777777778
2018-11-26T00:23:58.273Z,3.27777777778
2018-11-26T00:24:10.664Z,3.27777777778
2018-11-26T00:24:23.057Z,3.27777777778
2018-11-26T00:24:35.440Z,3.27777777778
2018-11-26T00:24:47.806Z,3.27777777778
2018-11-26T00:25:00.191Z,3.27777777778
2018-11-26T00:25:12.563Z,3.27777777778
2018-11-26T00:25:24.950Z,3.27777777778
2018-11-26T00:25:37.342Z,3.27777777778
2018-11-26T00:25:49.866Z,3.27777777778
2018-11-26T00:26:02.250Z,3.22222222222
2018-11-26T00:26:14.632Z,3.27777777778
2018-11-26T00:26:27.019Z,3.27777777778
2018-11-26T00:26:39.403Z,3.27777777778
2018-11-26T00:26:51.780Z,3.22222222222
2018-11-26T00:27:04.150Z,3.22222222222
2018-11-26T00:27:16.533Z,3.22222222222
2018-11-26T00:27:28.912Z,3.22222222222
2018-11-26T00:27:41.283Z,3.22222222222
2018-11-26T00:27:53.682Z,3.16666666667
2018-11-26T00:28:06.043Z,3.16666666667
2018-11-26T00:28:18.421Z,3.16666666667
2018-11-26T00:28:30.783Z,3.16666666667
2018-11-26T00:28:43.187Z,3.16666666667
2018-11-26T00:28:56.704Z,3.16666666667
2018-11-26T00:29:09.088Z,3.16666666667
2018-11-26T00:29:21.460Z,3.16666666667
2018-11-26T00:29:33.837Z,3.16666666667
2018-11-26T00:29:46.223Z,3.16666666667
2018-11-26T00:29:58.582Z,3.11111111111
2018-11-26T00:30:10.963Z,3.11111111111
2018-11-26T00:30:23.415Z,3.16666666667
2018-11-26T00:30:35.778Z,3.11111111111
2018-11-26T00:30:48.249Z,3.11111111111
2018-11-26T00:31:00.625Z,3.11111111111
2018-11-26T00:31:12.993Z,3.11111111111
2018-11-26T00:31:25.390Z,3.11111111111
2018-11-26T00:31:37.793Z,3.11111111111
2018-11-26T00:31:50.160Z,3.11111111111
2018-11-26T00:32:02.547Z,3.11111111111
2018-11-26T00:32:15.064Z,3.11111111111
2018-11-26T00:32:27.438Z,3.05555555556
2018-11-26T00:32:39.881Z,3.11111111111
2018-11-26T00:32:52.271Z,3.05555555556
2018-11-26T00:33:04.652Z,3.05555555556
2018-11-26T00:33:17.010Z,3.05555555556
2018-11-26T00:33:29.369Z,3.05555555556
2018-11-26T00:33:41.738Z,3.05555555556
2018-11-26T00:33:54.185Z,3.05555555556
2018-11-26T00:34:06.564Z,3.05555555556
2018-11-26T00:34:18.960Z,3.05555555556
2018-11-26T00:34:31.337Z,3.05555555556
2018-11-26T00:34:43.705Z,3.05555555556
2018-11-26T00:34:56.096Z,3.05555555556
2018-11-26T00:35:08.510Z,3.05555555556
2018-11-26T00:35:20.886Z,3.05555555556
2018-11-26T00:35:33.286Z,3
2018-11-26T00:35:45.679Z,3.05555555556
2018-11-26T00:35:58.052Z,3.05555555556
2018-11-26T00:36:10.422Z,3
2018-11-26T00:36:22.824Z,3.05555555556
2018-11-26T00:36:35.211Z,3.05555555556
2018-11-26T00:36:47.588Z,3.05555555556
2018-11-26T00:36:59.964Z,3
2018-11-26T00:37:12.431Z,3
2018-11-26T00:37:24.950Z,3
2018-11-26T00:37:37.336Z,3
2018-11-26T00:37:49.705Z,3
2018-11-26T00:38:02.094Z,3
2018-11-26T00:38:14.472Z,3
2018-11-26T00:38:26.843Z,3
2018-11-26T00:38:39.218Z,3
2018-11-26T00:38:51.624Z,3
2018-11-26T00:39:03.998Z,3
2018-11-26T00:39:16.378Z,2.94444444444
2018-11-26T00:39:28.742Z,3
2018-11-26T00:39:41.363Z,2.94444444444
2018-11-26T00:39:53.739Z,2.94444444444
2018-11-26T00:40:06.104Z,2.94444444444
2018-11-26T00:40:18.482Z,2.94444444444
2018-11-26T00:40:30.851Z,2.94444444444
2018-11-26T00:40:43.233Z,2.94444444444
2018-11-26T00:40:55.634Z,2.94444444444
2018-11-26T00:41:08.274Z,2.94444444444
2018-11-26T00:41:20.647Z,2.94444444444
2018-11-26T00:41:33.031Z,2.94444444444
2018-11-26T00:41:45.400Z,2.94444444444
2018-11-26T00:41:57.769Z,2.94444444444
2018-11-26T00:42:10.139Z,2.94444444444
2018-11-26T00:42:22.500Z,2.88888888889
2018-11-26T00:42:34.981Z,2.88888888889
2018-11-26T00:42:47.357Z,2.88888888889
2018-11-26T00:42:59.735Z,2.88888888889
2018-11-26T00:43:12.119Z,2.88888888889
2018-11-26T00:43:24.501Z,2.88888888889
2018-11-26T00:43:36.885Z,2.88888888889
2018-11-26T00:43:49.235Z,2.88888888889
2018-11-26T00:44:01.633Z,2.83333333333
2018-11-26T00:44:14.218Z,2.83333333333
2018-11-26T00:44:26.627Z,2.83333333333
2018-11-26T00:44:39.041Z,2.83333333333
2018-11-26T00:44:51.402Z,2.83333333333
2018-11-26T00:45:03.772Z,2.88888888889
2018-11-26T00:45:16.140Z,2.83333333333
2018-11-26T00:45:28.516Z,2.83333333333
2018-11-26T00:45:40.933Z,2.83333333333
2018-11-26T00:45:54.295Z,2.83333333333
2018-11-26T00:46:06.677Z,2.83333333333
2018-11-26T00:46:19.050Z,2.83333333333
2018-11-26T00:46:32.071Z,2.83333333333
2018-11-26T00:46:44.442Z,2.83333333333
2018-11-26T00:46:56.850Z,2.83333333333
2018-11-26T00:47:09.232Z,2.83333333333
2018-11-26T00:47:21.629Z,2.83333333333
2018-11-26T00:47:34.003Z,2.77777777778
2018-11-26T00:47:46.375Z,2.77777777778
2018-11-26T00:47:58.731Z,2.77777777778
2018-11-26T00:48:11.133Z,2.83333333333
2018-11-26T00:48:23.493Z,2.83333333333
2018-11-26T00:48:35.911Z,2.77777777778
2018-11-26T00:48:48.295Z,2.77777777778
2018-11-26T00:49:00.680Z,2.77777777778
2018-11-26T00:49:13.050Z,2.77777777778
2018-11-26T00:49:25.447Z,2.77777777778
2018-11-26T00:49:37.886Z,2.77777777778
2018-11-26T00:49:50.396Z,2.77777777778
2018-11-26T00:50:02.772Z,2.72222222222
2018-11-26T00:50:15.205Z,2.77777777778
2018-11-26T00:50:27.603Z,2.72222222222
2018-11-26T00:50:39.991Z,2.72222222222
2018-11-26T00:50:52.371Z,2.77777777778
2018-11-26T00:51:04.749Z,2.72222222222
2018-11-26T00:51:17.116Z,2.72222222222
2018-11-26T00:51:29.493Z,2.77777777778
2018-11-26T00:51:41.868Z,2.72222222222
2018-11-26T00:51:54.343Z,2.72222222222
2018-11-26T00:52:06.883Z,2.72222222222
2018-11-26T00:52:19.268Z,2.72222222222
2018-11-26T00:52:31.647Z,2.72222222222
2018-11-26T00:52:44.033Z,2.72222222222
2018-11-26T00:52:56.416Z,2.72222222222
2018-11-26T00:53:08.801Z,2.72222222222
2018-11-26T00:53:21.190Z,2.72222222222
2018-11-26T00:53:33.576Z,2.66666666667
2018-11-26T00:53:45.953Z,2.66666666667
2018-11-26T00:53:58.317Z,2.66666666667
2018-11-26T00:54:10.716Z,2.66666666667
2018-11-26T00:54:23.107Z,2.66666666667
2018-11-26T00:54:35.474Z,2.66666666667
2018-11-26T00:54:47.916Z,2.66666666667
2018-11-26T00:55:00.276Z,2.66666666667
2018-11-26T00:55:12.658Z,2.66666666667
2018-11-26T00:55:25.017Z,2.66666666667
2018-11-26T00:55:37.404Z,2.66666666667
2018-11-26T00:55:49.754Z,2.66666666667
2018-11-26T00:56:02.123Z,2.66666666667
2018-11-26T00:56:14.489Z,2.66666666667
2018-11-26T00:56:26.882Z,2.66666666667
2018-11-26T00:56:39.257Z,2.66666666667
2018-11-26T00:56:51.641Z,2.66666666667
2018-11-26T00:57:04.010Z,2.66666666667
2018-11-26T00:57:16.411Z,2.66666666667
2018-11-26T00:57:28.817Z,2.66666666667
2018-11-26T00:57:41.197Z,2.66666666667
2018-11-26T00:57:53.553Z,2.61111111111
2018-11-26T00:58:05.931Z,2.61111111111
2018-11-26T00:58:18.321Z,2.66666666667
2018-11-26T00:58:30.855Z,2.61111111111
2018-11-26T00:58:43.234Z,2.61111111111
2018-11-26T00:58:55.626Z,2.61111111111
2018-11-26T00:59:07.997Z,2.55555555556
2018-11-26T00:59:20.403Z,2.55555555556
2018-11-26T00:59:32.789Z,2.61111111111
2018-11-26T00:59:45.167Z,2.61111111111
2018-11-26T00:59:57.520Z,2.55555555556
2018-11-26T01:00:09.888Z,2.55555555556
2018-11-26T01:00:22.430Z,2.61111111111
2018-11-26T01:00:34.825Z,2.55555555556
2018-11-26T01:00:47.261Z,2.55555555556
2018-11-26T01:00:59.668Z,2.55555555556
2018-11-26T01:01:12.055Z,2.55555555556
2018-11-26T01:01:24.433Z,2.55555555556
2018-11-26T01:01:36.798Z,2.55555555556
2018-11-26T01:01:49.196Z,2.55555555556
2018-11-26T01:02:01.598Z,2.55555555556
2018-11-26T01:02:13.978Z,2.55555555556
2018-11-26T01:02:26.369Z,2.55555555556
2018-11-26T01:02:38.726Z,2.55555555556
2018-11-26T01:02:51.120Z,2.55555555556
2018-11-26T01:03:03.499Z,2.55555555556
2018-11-26T01:03:15.897Z,2.55555555556
2018-11-26T01:03:28.283Z,2.55555555556
2018-11-26T01:03:40.682Z,2.55555555556
2018-11-26T01:03:53.047Z,2.5
2018-11-26T01:04:05.439Z,2.55555555556
2018-11-26T01:04:17.945Z,2.55555555556
2018-11-26T01:04:30.318Z,2.5
2018-11-26T01:04:42.842Z,2.44444444444
2018-11-26T01:04:55.247Z,2.5
2018-11-26T01:05:07.737Z,2.5
2018-11-26T01:05:20.227Z,2.55555555556
2018-11-26T01:05:32.650Z,2.5
2018-11-26T01:05:45.138Z,2.5
2018-11-26T01:05:57.516Z,2.5
2018-11-26T01:06:09.890Z,2.5
2018-11-26T01:06:23.271Z,2.5
2018-11-26T01:06:35.655Z,2.5
2018-11-26T01:06:48.043Z,2.5
2018-11-26T01:07:00.428Z,2.44444444444
2018-11-26T01:07:12.800Z,2.44444444444
2018-11-26T01:07:25.172Z,2.44444444444
2018-11-26T01:07:37.544Z,2.5
2018-11-26T01:07:49.913Z,2.44444444444
2018-11-26T01:08:02.288Z,2.44444444444
2018-11-26T01:08:14.669Z,2.44444444444
2018-11-26T01:08:27.060Z,2.44444444444
2018-11-26T01:08:39.431Z,2.44444444444
2018-11-26T01:08:51.799Z,2.44444444444
2018-11-26T01:09:04.164Z,2.44444444444
2018-11-26T01:09:16.533Z,2.44444444444
2018-11-26T01:09:28.917Z,2.44444444444
2018-11-26T01:09:41.307Z,2.44444444444
2018-11-26T01:09:53.698Z,2.44444444444
2018-11-26T01:10:06.093Z,2.44444444444
2018-11-26T01:10:18.472Z,2.44444444444
2018-11-26T01:10:30.867Z,2.44444444444
2018-11-26T01:10:43.306Z,2.44444444444
2018-11-26T01:10:55.750Z,2.44444444444
2018-11-26T01:11:08.120Z,2.44444444444
2018-11-26T01:11:20.513Z,2.44444444444
2018-11-26T01:11:32.879Z,2.44444444444
2018-11-26T01:11:45.262Z,2.44444444444
2018-11-26T01:11:57.633Z,2.38888888889
2018-11-26T01:12:10.009Z,2.44444444444
2018-11-26T01:12:22.433Z,2.44444444444
2018-11-26T01:12:34.798Z,2.38888888889
2018-11-26T01:12:47.169Z,2.38888888889
2018-11-26T01:12:59.543Z,2.44444444444
2018-11-26T01:13:11.917Z,2.38888888889
2018-11-26T01:13:24.301Z,2.38888888889
2018-11-26T01:13:36.666Z,2.38888888889
2018-11-26T01:13:49.142Z,2.38888888889
2018-11-26T01:14:01.510Z,2.38888888889
2018-11-26T01:14:13.911Z,2.38888888889
2018-11-26T01:14:26.285Z,2.38888888889
2018-11-26T01:14:38.646Z,2.38888888889
2018-11-26T01:14:51.061Z,2.33333333333
2018-11-26T01:15:03.438Z,2.38888888889
2018-11-26T01:15:15.820Z,2.38888888889
2018-11-26T01:15:28.207Z,2.38888888889
2018-11-26T01:15:40.568Z,2.33333333333
2018-11-26T01:15:52.964Z,2.33333333333
2018-11-26T01:16:05.351Z,2.33333333333
2018-11-26T01:16:17.736Z,2.33333333333
2018-11-26T01:16:30.105Z,2.38888888889
2018-11-26T01:16:42.474Z,2.33333333333
2018-11-26T01:16:54.841Z,2.38888888889
2018-11-26T01:17:07.217Z,2.33333333333
2018-11-26T01:17:19.579Z,2.33333333333
2018-11-26T01:17:31.928Z,2.33333333333
2018-11-26T01:17:44.300Z,2.33333333333
2018-11-26T01:17:56.656Z,2.33333333333
2018-11-26T01:18:09.050Z,2.33333333333
2018-11-26T01:18:21.439Z,2.33333333333
2018-11-26T01:18:33.819Z,2.33333333333
2018-11-26T01:18:46.232Z,2.33333333333
2018-11-26T01:18:58.599Z,2.33333333333
2018-11-26T01:19:10.970Z,2.33333333333
2018-11-26T01:19:23.348Z,2.27777777778
2018-11-26T01:19:35.761Z,2.27777777778
2018-11-26T01:19:48.124Z,2.33333333333
2018-11-26T01:20:00.497Z,2.27777777778
2018-11-26T01:20:12.981Z,2.27777777778
2018-11-26T01:20:25.426Z,2.27777777778
2018-11-26T01:20:37.828Z,2.27777777778
2018-11-26T01:20:50.247Z,2.27777777778
2018-11-26T01:21:02.624Z,2.27777777778
2018-11-26T01:21:15.004Z,2.27777777778
2018-11-26T01:21:27.377Z,2.27777777778
2018-11-26T01:21:40.287Z,2.27777777778
2018-11-26T01:21:52.664Z,2.27777777778
2018-11-26T01:22:05.030Z,2.27777777778
2018-11-26T01:22:17.384Z,2.27777777778
2018-11-26T01:22:29.762Z,2.27777777778
2018-11-26T01:22:42.130Z,2.27777777778
2018-11-26T01:22:54.514Z,2.27777777778
2018-11-26T01:23:07.054Z,2.27777777778
2018-11-26T01:23:19.591Z,2.22222222222
2018-11-26T01:23:31.952Z,2.27777777778
2018-11-26T01:23:44.326Z,2.22222222222
2018-11-26T01:23:56.695Z,2.22222222222
2018-11-26T01:24:09.075Z,2.22222222222
2018-11-26T01:24:21.447Z,2.22222222222
2018-11-26T01:24:33.832Z,2.22222222222
2018-11-26T01:24:46.200Z,2.27777777778
2018-11-26T01:24:58.560Z,2.27777777778
2018-11-26T01:25:11.007Z,2.22222222222
2018-11-26T01:25:23.441Z,2.22222222222
2018-11-26T01:25:35.828Z,2.22222222222
2018-11-26T01:25:48.339Z,2.22222222222
2018-11-26T01:26:00.716Z,2.22222222222
2018-11-26T01:26:13.082Z,2.22222222222
2018-11-26T01:26:25.453Z,2.22222222222
2018-11-26T01:26:37.821Z,2.22222222222
2018-11-26T01:26:50.211Z,2.22222222222
2018-11-26T01:27:02.594Z,2.22222222222
2018-11-26T01:27:14.970Z,2.22222222222
2018-11-26T01:27:27.335Z,2.22222222222
2018-11-26T01:27:39.743Z,2.22222222222
2018-11-26T01:27:52.094Z,2.22222222222
2018-11-26T01:28:04.478Z,2.22222222222
2018-11-26T01:28:16.859Z,2.22222222222
2018-11-26T01:28:29.243Z,2.22222222222
2018-11-26T01:28:41.611Z,2.16666666667
2018-11-26T01:28:53.991Z,2.16666666667
2018-11-26T01:29:06.359Z,2.16666666667
2018-11-26T01:29:18.733Z,2.16666666667
2018-11-26T01:29:31.107Z,2.22222222222
2018-11-26T01:29:43.595Z,2.16666666667
2018-11-26T01:29:55.984Z,2.16666666667
2018-11-26T01:30:08.361Z,2.16666666667
2018-11-26T01:30:20.746Z,2.16666666667
2018-11-26T01:30:33.218Z,2.16666666667
2018-11-26T01:30:45.590Z,2.16666666667
2018-11-26T01:30:57.975Z,2.16666666667
2018-11-26T01:31:10.366Z,2.16666666667
2018-11-26T01:31:22.767Z,2.16666666667
2018-11-26T01:31:35.206Z,2.16666666667
2018-11-26T01:31:47.582Z,2.16666666667
2018-11-26T01:31:59.948Z,2.16666666667
2018-11-26T01:32:12.454Z,2.16666666667
2018-11-26T01:32:24.824Z,2.16666666667
2018-11-26T01:32:37.245Z,2.16666666667
2018-11-26T01:32:49.626Z,2.11111111111
2018-11-26T01:33:02.208Z,2.11111111111
2018-11-26T01:33:14.592Z,2.16666666667
2018-11-26T01:33:26.968Z,2.11111111111
2018-11-26T01:33:39.350Z,2.16666666667
2018-11-26T01:33:51.721Z,2.16666666667
2018-11-26T01:34:04.109Z,2.16666666667
2018-11-26T01:34:16.496Z,2.11111111111
2018-11-26T01:34:28.889Z,2.16666666667
2018-11-26T01:34:41.286Z,2.11111111111
2018-11-26T01:34:53.667Z,2.11111111111
2018-11-26T01:35:06.233Z,2.11111111111
2018-11-26T01:35:18.667Z,2.11111111111
2018-11-26T01:35:31.042Z,2.11111111111
2018-11-26T01:35:43.407Z,2.11111111111
2018-11-26T01:35:55.778Z,2.11111111111
2018-11-26T01:36:08.141Z,2.11111111111
2018-11-26T01:36:20.520Z,2.11111111111
2018-11-26T01:36:32.920Z,2.11111111111
2018-11-26T01:36:45.313Z,2.11111111111
2018-11-26T01:36:57.762Z,2.11111111111
2018-11-26T01:37:10.161Z,2.11111111111
2018-11-26T01:37:22.537Z,2.11111111111
2018-11-26T01:37:34.928Z,2.11111111111
2018-11-26T01:37:47.306Z,2.11111111111
2018-11-26T01:37:59.751Z,2.11111111111
2018-11-26T01:38:12.110Z,2.11111111111
2018-11-26T01:38:24.511Z,2.11111111111
2018-11-26T01:38:36.899Z,2.11111111111
2018-11-26T01:38:49.258Z,2.11111111111
2018-11-26T01:39:01.632Z,2.11111111111
2018-11-26T01:39:14.019Z,2.11111111111
2018-11-26T01:39:26.468Z,2.11111111111
2018-11-26T01:39:38.948Z,2.11111111111
2018-11-26T01:39:51.474Z,2.11111111111
2018-11-26T01:40:03.864Z,2.05555555556
2018-11-26T01:40:16.245Z,2.05555555556
2018-11-26T01:40:28.624Z,2.05555555556
2018-11-26T01:40:41.004Z,2.11111111111
2018-11-26T01:40:53.426Z,2.05555555556
2018-11-26T01:41:06.056Z,2.05555555556
2018-11-26T01:41:18.430Z,2.05555555556
2018-11-26T01:41:30.890Z,2.05555555556
2018-11-26T01:41:43.248Z,2.11111111111
2018-11-26T01:41:55.624Z,2.05555555556
2018-11-26T01:42:08.004Z,2.05555555556
2018-11-26T01:42:20.398Z,2.05555555556
2018-11-26T01:42:32.892Z,2.05555555556
2018-11-26T01:42:45.272Z,2.05555555556
2018-11-26T01:42:57.656Z,2.05555555556
2018-11-26T01:43:10.032Z,2.05555555556
2018-11-26T01:43:22.406Z,2.05555555556
2018-11-26T01:43:34.809Z,2.05555555556
2018-11-26T01:43:47.200Z,2.05555555556
2018-11-26T01:43:59.575Z,2.05555555556
2018-11-26T01:44:12.125Z,2.05555555556
2018-11-26T01:44:24.488Z,2.05555555556
2018-11-26T01:44:36.857Z,2.05555555556
2018-11-26T01:44:49.229Z,2.05555555556
2018-11-26T01:45:01.620Z,2.05555555556
2018-11-26T01:45:14.005Z,2.05555555556
2018-11-26T01:45:26.398Z,2.05555555556
2018-11-26T01:45:38.788Z,2
2018-11-26T01:45:51.437Z,2
2018-11-26T01:46:03.861Z,2.05555555556
2018-11-26T01:46:16.245Z,2.05555555556
2018-11-26T01:46:28.609Z,2.05555555556
2018-11-26T01:46:40.976Z,2.05555555556
2018-11-26T01:46:53.361Z,2
2018-11-26T01:47:05.734Z,2.05555555556
2018-11-26T01:47:18.123Z,2
2018-11-26T01:47:30.486Z,2
2018-11-26T01:47:42.847Z,2
2018-11-26T01:47:55.224Z,2.05555555556
2018-11-26T01:48:07.607Z,2
2018-11-26T01:48:19.974Z,2
2018-11-26T01:48:32.334Z,2
2018-11-26T01:48:44.751Z,2
2018-11-26T01:48:57.161Z,1.94444444444
2018-11-26T01:49:09.538Z,2
2018-11-26T01:49:21.929Z,2
2018-11-26T01:49:34.316Z,1.94444444444
2018-11-26T01:49:46.699Z,1.94444444444
2018-11-26T01:49:59.189Z,1.94444444444
2018-11-26T01:50:11.632Z,1.94444444444
2018-11-26T01:50:24.027Z,1.94444444444
2018-11-26T01:50:36.401Z,1.94444444444
2018-11-26T01:50:48.772Z,1.94444444444
2018-11-26T01:51:01.161Z,1.94444444444
2018-11-26T01:51:13.542Z,1.94444444444
2018-11-26T01:51:25.915Z,1.94444444444
2018-11-26T01:51:38.320Z,1.94444444444
2018-11-26T01:51:50.705Z,1.94444444444
2018-11-26T01:52:03.235Z,1.94444444444
2018-11-26T01:52:15.675Z,1.94444444444
2018-11-26T01:52:28.061Z,1.94444444444
2018-11-26T01:52:40.452Z,1.94444444444
2018-11-26T01:52:52.837Z,1.94444444444
2018-11-26T01:53:05.221Z,1.94444444444
2018-11-26T01:53:17.604Z,1.94444444444
2018-11-26T01:53:29.991Z,1.94444444444
2018-11-26T01:53:42.363Z,1.94444444444
2018-11-26T01:53:54.742Z,1.94444444444
2018-11-26T01:54:07.118Z,1.94444444444
2018-11-26T01:54:19.476Z,1.94444444444
2018-11-26T01:54:31.871Z,1.94444444444
2018-11-26T01:54:44.252Z,1.94444444444
2018-11-26T01:54:56.634Z,1.94444444444
2018-11-26T01:55:09.024Z,1.94444444444
2018-11-26T01:55:21.412Z,1.94444444444
2018-11-26T01:55:33.782Z,1.94444444444
2018-11-26T01:55:46.154Z,1.94444444444
2018-11-26T01:55:58.533Z,1.94444444444
2018-11-26T01:56:10.904Z,1.94444444444
2018-11-26T01:56:23.281Z,1.94444444444
2018-11-26T01:56:35.674Z,1.94444444444
2018-11-26T01:56:48.038Z,1.94444444444
2018-11-26T01:57:00.397Z,1.88888888889
2018-11-26T01:57:12.793Z,1.88888888889
2018-11-26T01:57:25.169Z,1.88888888889
2018-11-26T01:57:37.552Z,1.88888888889
2018-11-26T01:57:49.982Z,1.88888888889
2018-11-26T01:58:02.360Z,1.83333333333
2018-11-26T01:58:14.730Z,1.88888888889
2018-11-26T01:58:27.123Z,1.83333333333
2018-11-26T01:58:39.502Z,1.88888888889
2018-11-26T01:58:51.876Z,1.83333333333
2018-11-26T01:59:04.410Z,1.83333333333
2018-11-26T01:59:16.779Z,1.83333333333
2018-11-26T01:59:29.155Z,1.83333333333
2018-11-26T01:59:41.522Z,1.83333333333
2018-11-26T01:59:53.885Z,1.83333333333
2018-11-26T02:00:06.275Z,1.83333333333
2018-11-26T02:00:18.891Z,1.83333333333
2018-11-26T02:00:31.893Z,1.83333333333
2018-11-26T02:00:44.289Z,1.83333333333
2018-11-26T02:00:56.700Z,1.83333333333
2018-11-26T02:01:09.126Z,1.83333333333
2018-11-26T02:01:21.528Z,1.83333333333
2018-11-26T02:01:33.944Z,1.83333333333
2018-11-26T02:01:46.308Z,1.83333333333
2018-11-26T02:01:58.660Z,1.83333333333
2018-11-26T02:02:11.043Z,1.77777777778
2018-11-26T02:02:23.430Z,1.77777777778
2018-11-26T02:02:35.787Z,1.83333333333
2018-11-26T02:02:48.156Z,1.83333333333
2018-11-26T02:03:00.521Z,1.83333333333
2018-11-26T02:03:12.894Z,1.83333333333
2018-11-26T02:03:25.260Z,1.77777777778
2018-11-26T02:03:37.636Z,1.77777777778
2018-11-26T02:03:50.002Z,1.77777777778
2018-11-26T02:04:02.542Z,1.83333333333
2018-11-26T02:04:15.010Z,1.83333333333
2018-11-26T02:04:27.411Z,1.83333333333
2018-11-26T02:04:39.773Z,1.77777777778
2018-11-26T02:04:52.281Z,1.77777777778
2018-11-26T02:05:04.662Z,1.77777777778
2018-11-26T02:05:17.256Z,1.77777777778
2018-11-26T02:05:29.653Z,1.77777777778
2018-11-26T02:05:42.171Z,1.77777777778
2018-11-26T02:05:54.532Z,1.77777777778
2018-11-26T02:06:07.051Z,1.77777777778
2018-11-26T02:06:19.410Z,1.77777777778
2018-11-26T02:06:31.808Z,1.77777777778
2018-11-26T02:06:44.192Z,1.77777777778
2018-11-26T02:06:56.568Z,1.77777777778
2018-11-26T02:07:08.955Z,1.77777777778
2018-11-26T02:07:21.338Z,1.77777777778
2018-11-26T02:07:33.703Z,1.77777777778
2018-11-26T02:07:46.082Z,1.77777777778
2018-11-26T02:07:58.439Z,1.77777777778
2018-11-26T02:08:10.941Z,1.77777777778
2018-11-26T02:08:23.311Z,1.77777777778
2018-11-26T02:08:35.709Z,1.72222222222
2018-11-26T02:08:48.087Z,1.77777777778
2018-11-26T02:09:00.469Z,1.77777777778
2018-11-26T02:09:12.843Z,1.77777777778
2018-11-26T02:09:25.229Z,1.77777777778
2018-11-26T02:09:37.609Z,1.77777777778
2018-11-26T02:09:49.968Z,1.77777777778
2018-11-26T02:10:02.347Z,1.72222222222